Flatwoods, Tennessee
Current Conditions -  °F | °C
As of 6:15 PM on Saturday 25 Oct 2014 (Local Time) from KPVE Reporting Station
Clear Clear  
Wind Chill: 72°   Ceiling: Unl
Heat Index: 72°   Visibility: 10mi
Dew Point: 64°   Wind: 0mph
Humidity: 78%   Direction: NA
Pressure: 30.01"   Gusts: NA
Location:  35.5798°N, 87.8504°W
Report Text: KPVE 252315Z AUTO 00000KT 10SM CLR 22/18 A3001 RMK
Loading
Personal Weather Stations






























Interactive Weather Map
Tropical Storm Tracking
New forecast layout! Learn more

10-Day Weather Forecast

Advertisements
Track Severe Weather on mobile